sensor_id;sensor_type;location;lat;lon;timestamp;P1;durP1;ratioP1;P2;durP2;ratioP2
10333;SDS011;5212;47.892;16.406;2024-03-23T08:37:05;6.73;;;4.77;;
10333;SDS011;5212;47.892;16.406;2024-03-23T08:39:32;6.30;;;4.77;;
10333;SDS011;5212;47.892;16.406;2024-03-23T08:41:58;5.93;;;4.33;;
10333;SDS011;5212;47.892;16.406;2024-03-23T08:44:26;6.43;;;4.27;;
10333;SDS011;5212;47.892;16.406;2024-03-23T08:46:52;6.10;;;3.93;;
10333;SDS011;5212;47.892;16.406;2024-03-23T08:49:22;5.57;;;4.13;;
10333;SDS011;5212;47.892;16.406;2024-03-23T09:04:36;4.60;;;3.03;;
10333;SDS011;5212;47.892;16.406;2024-03-23T09:07:04;3.13;;;2.20;;
10333;SDS011;5212;47.892;16.406;2024-03-23T09:09:30;2.70;;;2.07;;
10333;SDS011;5212;47.892;16.406;2024-03-23T09:11:57;2.13;;;1.90;;
10333;SDS011;5212;47.892;16.406;2024-03-23T09:14:23;2.30;;;1.67;;
10333;SDS011;5212;47.892;16.406;2024-03-23T09:16:50;2.57;;;1.80;;
10333;SDS011;5212;47.892;16.406;2024-03-23T09:19:17;4.20;;;1.80;;
10333;SDS011;5212;47.892;16.406;2024-03-23T09:21:46;2.43;;;1.70;;
10333;SDS011;5212;47.892;16.406;2024-03-23T09:24:12;2.80;;;2.30;;
10333;SDS011;5212;47.892;16.406;2024-03-23T09:26:38;2.70;;;2.00;;
10333;SDS011;5212;47.892;16.406;2024-03-23T09:29:04;3.23;;;1.80;;
10333;SDS011;5212;47.892;16.406;2024-03-23T09:31:31;2.50;;;1.80;;
10333;SDS011;5212;47.892;16.406;2024-03-23T09:33:58;2.60;;;2.00;;
10333;SDS011;5212;47.892;16.406;2024-03-23T09:36:25;2.60;;;2.00;;
10333;SDS011;5212;47.892;16.406;2024-03-23T09:38:52;2.97;;;2.13;;
10333;SDS011;5212;47.892;16.406;2024-03-23T09:41:19;2.27;;;1.90;;
10333;SDS011;5212;47.892;16.406;2024-03-23T09:43:45;2.57;;;1.87;;
10333;SDS011;5212;47.892;16.406;2024-03-23T09:46:13;3.30;;;2.40;;
10333;SDS011;5212;47.892;16.406;2024-03-23T09:48:39;2.10;;;1.83;;
10333;SDS011;5212;47.892;16.406;2024-03-23T09:51:06;3.70;;;2.10;;
10333;SDS011;5212;47.892;16.406;2024-03-23T09:53:34;3.00;;;2.30;;
10333;SDS011;5212;47.892;16.406;2024-03-23T09:56:02;3.40;;;2.30;;
10333;SDS011;5212;47.892;16.406;2024-03-23T09:58:28;5.03;;;2.00;;
10333;SDS011;5212;47.892;16.406;2024-03-23T10:00:55;3.67;;;2.80;;
10333;SDS011;5212;47.892;16.406;2024-03-23T10:03:21;3.77;;;2.37;;
10333;SDS011;5212;47.892;16.406;2024-03-23T10:05:47;2.53;;;2.00;;
10333;SDS011;5212;47.892;16.406;2024-03-23T10:08:25;2.53;;;1.90;;
10333;SDS011;5212;47.892;16.406;2024-03-23T10:10:52;2.60;;;1.90;;
10333;SDS011;5212;47.892;16.406;2024-03-23T10:13:28;2.50;;;1.60;;
10333;SDS011;5212;47.892;16.406;2024-03-23T10:15:55;1.60;;;1.40;;
10333;SDS011;5212;47.892;16.406;2024-03-23T10:18:22;3.60;;;1.67;;
10333;SDS011;5212;47.892;16.406;2024-03-23T10:20:50;1.70;;;1.40;;
10333;SDS011;5212;47.892;16.406;2024-03-23T10:23:17;1.50;;;1.30;;
10333;SDS011;5212;47.892;16.406;2024-03-23T10:25:44;5.67;;;1.40;;
10333;SDS011;5212;47.892;16.406;2024-03-23T10:28:11;1.57;;;1.27;;
10333;SDS011;5212;47.892;16.406;2024-03-23T10:30:39;1.23;;;1.00;;
10333;SDS011;5212;47.892;16.406;2024-03-23T10:33:08;2.70;;;1.17;;
10333;SDS011;5212;47.892;16.406;2024-03-23T10:35:36;1.17;;;0.90;;
10333;SDS011;5212;47.892;16.406;2024-03-23T10:38:02;4.27;;;1.30;;
10333;SDS011;5212;47.892;16.406;2024-03-23T10:40:31;1.80;;;1.30;;
10333;SDS011;5212;47.892;16.406;2024-03-23T10:42:57;2.13;;;1.70;;
10333;SDS011;5212;47.892;16.406;2024-03-23T10:45:25;1.97;;;1.60;;
10333;SDS011;5212;47.892;16.406;2024-03-23T10:47:52;2.13;;;1.80;;
10333;SDS011;5212;47.892;16.406;2024-03-23T10:50:18;3.10;;;2.57;;
10333;SDS011;5212;47.892;16.406;2024-03-23T10:52:46;3.13;;;2.50;;
10333;SDS011;5212;47.892;16.406;2024-03-23T10:55:14;2.07;;;1.60;;
10333;SDS011;5212;47.892;16.406;2024-03-23T10:57:41;3.87;;;2.23;;
10333;SDS011;5212;47.892;16.406;2024-03-23T11:00:10;2.40;;;1.83;;
10333;SDS011;5212;47.892;16.406;2024-03-23T11:02:37;2.63;;;1.93;;
10333;SDS011;5212;47.892;16.406;2024-03-23T11:05:11;2.63;;;2.10;;
10333;SDS011;5212;47.892;16.406;2024-03-23T11:07:53;2.70;;;1.93;;
10333;SDS011;5212;47.892;16.406;2024-03-23T11:10:26;2.10;;;1.70;;
10333;SDS011;5212;47.892;16.406;2024-03-23T11:12:54;1.90;;;1.70;;
10333;SDS011;5212;47.892;16.406;2024-03-23T11:15:21;1.90;;;1.70;;
10333;SDS011;5212;47.892;16.406;2024-03-23T11:18:02;1.70;;;1.60;;
10333;SDS011;5212;47.892;16.406;2024-03-23T11:20:34;2.93;;;1.90;;
10333;SDS011;5212;47.892;16.406;2024-03-23T11:23:00;2.33;;;1.90;;
10333;SDS011;5212;47.892;16.406;2024-03-23T11:25:27;2.33;;;1.70;;
10333;SDS011;5212;47.892;16.406;2024-03-23T11:27:54;2.67;;;1.80;;
10333;SDS011;5212;47.892;16.406;2024-03-23T11:30:22;3.00;;;2.10;;
10333;SDS011;5212;47.892;16.406;2024-03-23T11:32:49;3.07;;;2.57;;
10333;SDS011;5212;47.892;16.406;2024-03-23T11:35:26;2.57;;;1.87;;
10333;SDS011;5212;47.892;16.406;2024-03-23T11:38:06;3.93;;;2.73;;
10333;SDS011;5212;47.892;16.406;2024-03-23T11:40:34;4.13;;;2.97;;
10333;SDS011;5212;47.892;16.406;2024-03-23T11:43:01;4.13;;;3.30;;
10333;SDS011;5212;47.892;16.406;2024-03-23T11:45:28;4.67;;;3.33;;
10333;SDS011;5212;47.892;16.406;2024-03-23T11:48:07;5.27;;;3.17;;
10333;SDS011;5212;47.892;16.406;2024-03-23T11:50:36;3.60;;;2.77;;
10333;SDS011;5212;47.892;16.406;2024-03-23T11:53:12;4.53;;;3.37;;
10333;SDS011;5212;47.892;16.406;2024-03-23T11:55:46;4.43;;;3.20;;
10333;SDS011;5212;47.892;16.406;2024-03-23T11:58:13;3.23;;;2.73;;
10333;SDS011;5212;47.892;16.406;2024-03-23T12:00:40;6.87;;;2.77;;
10333;SDS011;5212;47.892;16.406;2024-03-23T12:03:06;6.73;;;2.67;;
10333;SDS011;5212;47.892;16.406;2024-03-23T12:05:33;3.67;;;2.40;;
10333;SDS011;5212;47.892;16.406;2024-03-23T12:08:16;3.73;;;2.67;;
10333;SDS011;5212;47.892;16.406;2024-03-23T12:10:47;3.67;;;2.70;;
10333;SDS011;5212;47.892;16.406;2024-03-23T12:13:15;4.90;;;2.70;;
10333;SDS011;5212;47.892;16.406;2024-03-23T12:15:43;3.53;;;2.50;;
10333;SDS011;5212;47.892;16.406;2024-03-23T12:18:10;4.30;;;2.37;;
10333;SDS011;5212;47.892;16.406;2024-03-23T12:20:37;3.33;;;2.60;;
10333;SDS011;5212;47.892;16.406;2024-03-23T12:23:06;3.33;;;2.30;;
10333;SDS011;5212;47.892;16.406;2024-03-23T12:25:35;3.83;;;2.10;;
10333;SDS011;5212;47.892;16.406;2024-03-23T12:28:01;3.13;;;2.10;;
10333;SDS011;5212;47.892;16.406;2024-03-23T12:30:31;2.30;;;1.83;;
10333;SDS011;5212;47.892;16.406;2024-03-23T12:32:57;2.90;;;2.13;;
10333;SDS011;5212;47.892;16.406;2024-03-23T12:35:23;1.83;;;1.60;;
10333;SDS011;5212;47.892;16.406;2024-03-23T12:37:49;3.00;;;1.73;;
10333;SDS011;5212;47.892;16.406;2024-03-23T12:40:16;2.57;;;1.77;;
10333;SDS011;5212;47.892;16.406;2024-03-23T12:42:43;3.53;;;1.53;;
10333;SDS011;5212;47.892;16.406;2024-03-23T12:45:10;2.33;;;1.40;;
10333;SDS011;5212;47.892;16.406;2024-03-23T12:47:35;1.63;;;1.40;;
10333;SDS011;5212;47.892;16.406;2024-03-23T12:50:02;3.63;;;1.20;;
10333;SDS011;5212;47.892;16.406;2024-03-23T12:52:28;2.20;;;1.50;;
10333;SDS011;5212;47.892;16.406;2024-03-23T12:54:55;1.40;;;1.13;;
10333;SDS011;5212;47.892;16.406;2024-03-23T12:57:21;1.80;;;1.23;;
10333;SDS011;5212;47.892;16.406;2024-03-23T12:59:51;1.47;;;1.30;;
10333;SDS011;5212;47.892;16.406;2024-03-23T13:02:18;1.77;;;1.10;;
10333;SDS011;5212;47.892;16.406;2024-03-23T13:04:46;2.10;;;1.27;;
10333;SDS011;5212;47.892;16.406;2024-03-23T13:07:12;1.93;;;1.27;;
10333;SDS011;5212;47.892;16.406;2024-03-23T13:09:39;7.50;;;1.90;;
10333;SDS011;5212;47.892;16.406;2024-03-23T13:12:05;1.67;;;1.20;;
10333;SDS011;5212;47.892;16.406;2024-03-23T13:14:32;1.60;;;1.20;;
10333;SDS011;5212;47.892;16.406;2024-03-23T13:17:00;2.27;;;1.20;;
10333;SDS011;5212;47.892;16.406;2024-03-23T13:19:27;1.63;;;0.97;;
10333;SDS011;5212;47.892;16.406;2024-03-23T13:21:55;1.33;;;0.70;;
10333;SDS011;5212;47.892;16.406;2024-03-23T13:24:22;2.50;;;0.80;;
10333;SDS011;5212;47.892;16.406;2024-03-23T13:26:49;0.90;;;0.60;;
10333;SDS011;5212;47.892;16.406;2024-03-23T13:29:17;1.87;;;0.70;;
10333;SDS011;5212;47.892;16.406;2024-03-23T13:31:42;1.30;;;0.60;;
10333;SDS011;5212;47.892;16.406;2024-03-23T13:34:11;0.80;;;0.70;;
10333;SDS011;5212;47.892;16.406;2024-03-23T13:36:38;1.10;;;0.80;;
10333;SDS011;5212;47.892;16.406;2024-03-23T13:39:05;0.70;;;0.60;;
10333;SDS011;5212;47.892;16.406;2024-03-23T13:41:36;0.70;;;0.60;;
10333;SDS011;5212;47.892;16.406;2024-03-23T13:44:03;0.60;;;0.60;;
10333;SDS011;5212;47.892;16.406;2024-03-23T13:46:30;2.10;;;0.73;;
10333;SDS011;5212;47.892;16.406;2024-03-23T13:48:55;0.73;;;0.63;;
10333;SDS011;5212;47.892;16.406;2024-03-23T13:51:24;0.93;;;0.70;;
10333;SDS011;5212;47.892;16.406;2024-03-23T13:53:52;0.60;;;0.50;;
10333;SDS011;5212;47.892;16.406;2024-03-23T13:56:19;1.00;;;0.53;;
10333;SDS011;5212;47.892;16.406;2024-03-23T13:58:45;1.10;;;0.70;;
10333;SDS011;5212;47.892;16.406;2024-03-23T14:01:12;1.43;;;0.60;;
10333;SDS011;5212;47.892;16.406;2024-03-23T14:03:39;4.93;;;0.53;;
10333;SDS011;5212;47.892;16.406;2024-03-23T14:06:06;0.60;;;0.60;;
10333;SDS011;5212;47.892;16.406;2024-03-23T14:08:34;0.70;;;0.60;;
10333;SDS011;5212;47.892;16.406;2024-03-23T14:11:04;0.53;;;0.53;;
10333;SDS011;5212;47.892;16.406;2024-03-23T14:13:30;0.80;;;0.70;;
10333;SDS011;5212;47.892;16.406;2024-03-23T14:15:56;0.90;;;0.70;;
10333;SDS011;5212;47.892;16.406;2024-03-23T14:18:22;0.97;;;0.70;;
10333;SDS011;5212;47.892;16.406;2024-03-23T14:20:49;1.13;;;0.77;;
10333;SDS011;5212;47.892;16.406;2024-03-23T14:23:15;1.80;;;0.80;;
10333;SDS011;5212;47.892;16.406;2024-03-23T14:25:43;1.60;;;1.00;;
10333;SDS011;5212;47.892;16.406;2024-03-23T14:28:10;1.43;;;0.50;;
10333;SDS011;5212;47.892;16.406;2024-03-23T14:30:40;1.50;;;0.70;;
10333;SDS011;5212;47.892;16.406;2024-03-23T14:33:06;0.90;;;0.70;;
10333;SDS011;5212;47.892;16.406;2024-03-23T14:35:33;0.70;;;0.60;;
10333;SDS011;5212;47.892;16.406;2024-03-23T14:37:59;0.70;;;0.60;;
10333;SDS011;5212;47.892;16.406;2024-03-23T14:40:26;3.27;;;0.60;;
10333;SDS011;5212;47.892;16.406;2024-03-23T14:42:54;0.90;;;0.73;;
10333;SDS011;5212;47.892;16.406;2024-03-23T14:45:21;0.87;;;0.87;;
10333;SDS011;5212;47.892;16.406;2024-03-23T14:47:47;0.80;;;0.70;;
10333;SDS011;5212;47.892;16.406;2024-03-23T14:50:14;1.43;;;0.70;;
10333;SDS011;5212;47.892;16.406;2024-03-23T14:52:40;3.53;;;0.80;;
10333;SDS011;5212;47.892;16.406;2024-03-23T14:55:07;1.57;;;0.80;;
10333;SDS011;5212;47.892;16.406;2024-03-23T14:57:34;0.90;;;0.70;;
10333;SDS011;5212;47.892;16.406;2024-03-23T15:00:02;0.87;;;0.60;;
10333;SDS011;5212;47.892;16.406;2024-03-23T15:02:30;0.90;;;0.67;;
10333;SDS011;5212;47.892;16.406;2024-03-23T15:04:57;0.77;;;0.47;;
10333;SDS011;5212;47.892;16.406;2024-03-23T15:07:23;1.37;;;0.83;;
10333;SDS011;5212;47.892;16.406;2024-03-23T15:09:51;0.80;;;0.60;;
10333;SDS011;5212;47.892;16.406;2024-03-23T15:12:18;4.17;;;0.70;;
10333;SDS011;5212;47.892;16.406;2024-03-23T15:14:46;0.77;;;0.63;;
10333;SDS011;5212;47.892;16.406;2024-03-23T15:17:14;1.47;;;0.80;;
10333;SDS011;5212;47.892;16.406;2024-03-23T15:19:40;0.70;;;0.70;;
10333;SDS011;5212;47.892;16.406;2024-03-23T15:22:07;1.33;;;0.50;;
10333;SDS011;5212;47.892;16.406;2024-03-23T15:24:35;0.90;;;0.60;;
10333;SDS011;5212;47.892;16.406;2024-03-23T15:27:01;1.00;;;0.50;;
10333;SDS011;5212;47.892;16.406;2024-03-23T15:29:28;0.67;;;0.50;;
10333;SDS011;5212;47.892;16.406;2024-03-23T15:31:54;1.00;;;0.47;;
10333;SDS011;5212;47.892;16.406;2024-03-23T15:34:22;0.53;;;0.53;;
10333;SDS011;5212;47.892;16.406;2024-03-23T15:36:48;3.07;;;0.60;;
10333;SDS011;5212;47.892;16.406;2024-03-23T15:39:16;1.07;;;0.53;;
10333;SDS011;5212;47.892;16.406;2024-03-23T15:41:43;1.40;;;0.70;;
10333;SDS011;5212;47.892;16.406;2024-03-23T15:44:10;0.87;;;0.70;;
10333;SDS011;5212;47.892;16.406;2024-03-23T15:46:36;1.00;;;0.70;;
10333;SDS011;5212;47.892;16.406;2024-03-23T15:49:03;0.67;;;0.63;;
10333;SDS011;5212;47.892;16.406;2024-03-23T15:51:30;0.97;;;0.77;;
10333;SDS011;5212;47.892;16.406;2024-03-23T15:54:00;2.70;;;0.60;;
10333;SDS011;5212;47.892;16.406;2024-03-23T15:56:25;1.03;;;0.80;;
10333;SDS011;5212;47.892;16.406;2024-03-23T15:58:52;1.10;;;0.60;;
10333;SDS011;5212;47.892;16.406;2024-03-23T16:01:18;1.03;;;0.80;;
10333;SDS011;5212;47.892;16.406;2024-03-23T16:03:45;1.10;;;0.70;;
10333;SDS011;5212;47.892;16.406;2024-03-23T16:06:11;1.27;;;0.90;;
10333;SDS011;5212;47.892;16.406;2024-03-23T16:08:39;1.00;;;0.80;;
10333;SDS011;5212;47.892;16.406;2024-03-23T16:11:06;1.87;;;1.00;;
10333;SDS011;5212;47.892;16.406;2024-03-23T16:13:33;0.60;;;0.60;;
10333;SDS011;5212;47.892;16.406;2024-03-23T16:16:00;0.93;;;0.80;;
10333;SDS011;5212;47.892;16.406;2024-03-23T16:18:30;1.17;;;0.93;;
10333;SDS011;5212;47.892;16.406;2024-03-23T16:20:57;1.10;;;0.83;;
10333;SDS011;5212;47.892;16.406;2024-03-23T16:23:24;2.03;;;0.97;;
10333;SDS011;5212;47.892;16.406;2024-03-23T16:25:53;0.80;;;0.73;;
10333;SDS011;5212;47.892;16.406;2024-03-23T16:28:25;0.90;;;0.70;;
10333;SDS011;5212;47.892;16.406;2024-03-23T16:30:53;1.10;;;0.70;;
10333;SDS011;5212;47.892;16.406;2024-03-23T16:33:20;1.90;;;0.80;;
10333;SDS011;5212;47.892;16.406;2024-03-23T16:35:54;3.43;;;0.80;;
10333;SDS011;5212;47.892;16.406;2024-03-23T16:38:20;1.07;;;0.73;;
10333;SDS011;5212;47.892;16.406;2024-03-23T16:40:53;1.20;;;0.90;;
10333;SDS011;5212;47.892;16.406;2024-03-23T16:43:23;1.90;;;0.90;;
10333;SDS011;5212;47.892;16.406;2024-03-23T16:45:51;0.90;;;0.70;;
10333;SDS011;5212;47.892;16.406;2024-03-23T16:48:18;0.93;;;0.70;;
10333;SDS011;5212;47.892;16.406;2024-03-23T16:50:45;1.00;;;0.70;;
10333;SDS011;5212;47.892;16.406;2024-03-23T16:53:10;0.60;;;0.60;;
10333;SDS011;5212;47.892;16.406;2024-03-23T16:55:37;0.70;;;0.70;;
10333;SDS011;5212;47.892;16.406;2024-03-23T16:58:04;1.33;;;0.67;;
10333;SDS011;5212;47.892;16.406;2024-03-23T17:00:31;0.83;;;0.80;;
10333;SDS011;5212;47.892;16.406;2024-03-23T17:02:57;1.00;;;0.80;;
10333;SDS011;5212;47.892;16.406;2024-03-23T17:05:23;0.87;;;0.80;;
10333;SDS011;5212;47.892;16.406;2024-03-23T17:07:49;0.77;;;0.70;;
10333;SDS011;5212;47.892;16.406;2024-03-23T17:10:16;0.87;;;0.63;;
10333;SDS011;5212;47.892;16.406;2024-03-23T17:12:42;0.80;;;0.63;;
10333;SDS011;5212;47.892;16.406;2024-03-23T17:15:11;1.93;;;1.03;;
10333;SDS011;5212;47.892;16.406;2024-03-23T17:17:37;0.80;;;0.70;;
10333;SDS011;5212;47.892;16.406;2024-03-23T17:20:04;1.20;;;0.70;;
10333;SDS011;5212;47.892;16.406;2024-03-23T17:22:31;0.87;;;0.70;;
10333;SDS011;5212;47.892;16.406;2024-03-23T17:24:58;1.07;;;0.80;;
10333;SDS011;5212;47.892;16.406;2024-03-23T17:27:24;1.00;;;0.80;;
10333;SDS011;5212;47.892;16.406;2024-03-23T17:29:51;0.70;;;0.70;;
10333;SDS011;5212;47.892;16.406;2024-03-23T17:32:18;1.00;;;0.60;;
10333;SDS011;5212;47.892;16.406;2024-03-23T17:34:45;0.80;;;0.80;;
10333;SDS011;5212;47.892;16.406;2024-03-23T17:37:10;0.97;;;0.70;;
10333;SDS011;5212;47.892;16.406;2024-03-23T17:39:37;1.37;;;0.70;;
10333;SDS011;5212;47.892;16.406;2024-03-23T17:42:03;0.93;;;0.83;;
10333;SDS011;5212;47.892;16.406;2024-03-23T17:44:30;1.70;;;1.00;;
10333;SDS011;5212;47.892;16.406;2024-03-23T17:46:56;0.90;;;0.80;;
10333;SDS011;5212;47.892;16.406;2024-03-23T17:49:24;0.70;;;0.60;;
10333;SDS011;5212;47.892;16.406;2024-03-23T17:51:50;1.10;;;0.80;;
10333;SDS011;5212;47.892;16.406;2024-03-23T17:54:17;1.00;;;0.90;;
10333;SDS011;5212;47.892;16.406;2024-03-23T17:56:44;1.63;;;0.90;;
10333;SDS011;5212;47.892;16.406;2024-03-23T17:59:11;1.40;;;0.90;;
10333;SDS011;5212;47.892;16.406;2024-03-23T18:01:37;1.40;;;0.80;;
10333;SDS011;5212;47.892;16.406;2024-03-23T18:04:04;1.30;;;0.90;;
10333;SDS011;5212;47.892;16.406;2024-03-23T18:06:31;0.97;;;0.87;;
10333;SDS011;5212;47.892;16.406;2024-03-23T18:08:58;1.07;;;0.93;;
10333;SDS011;5212;47.892;16.406;2024-03-23T18:11:26;1.00;;;0.90;;
10333;SDS011;5212;47.892;16.406;2024-03-23T18:13:52;1.67;;;1.13;;
10333;SDS011;5212;47.892;16.406;2024-03-23T18:16:18;1.10;;;0.70;;
10333;SDS011;5212;47.892;16.406;2024-03-23T18:18:46;0.70;;;0.70;;
10333;SDS011;5212;47.892;16.406;2024-03-23T18:21:11;0.70;;;0.67;;
10333;SDS011;5212;47.892;16.406;2024-03-23T18:23:39;1.43;;;1.00;;
10333;SDS011;5212;47.892;16.406;2024-03-23T18:26:05;1.40;;;0.90;;
10333;SDS011;5212;47.892;16.406;2024-03-23T18:28:33;1.17;;;0.90;;
10333;SDS011;5212;47.892;16.406;2024-03-23T18:30:59;1.10;;;0.97;;
10333;SDS011;5212;47.892;16.406;2024-03-23T18:33:27;2.07;;;1.00;;
10333;SDS011;5212;47.892;16.406;2024-03-23T18:35:57;1.13;;;1.03;;
10333;SDS011;5212;47.892;16.406;2024-03-23T18:38:25;1.60;;;1.00;;
10333;SDS011;5212;47.892;16.406;2024-03-23T18:40:52;1.53;;;1.10;;
10333;SDS011;5212;47.892;16.406;2024-03-23T18:43:19;1.27;;;1.17;;
10333;SDS011;5212;47.892;16.406;2024-03-23T18:45:45;1.33;;;1.00;;
10333;SDS011;5212;47.892;16.406;2024-03-23T18:48:12;1.60;;;0.90;;
10333;SDS011;5212;47.892;16.406;2024-03-23T18:50:38;1.57;;;1.20;;
10333;SDS011;5212;47.892;16.406;2024-03-23T18:53:06;1.40;;;1.00;;
10333;SDS011;5212;47.892;16.406;2024-03-23T18:55:31;1.63;;;1.00;;
10333;SDS011;5212;47.892;16.406;2024-03-23T18:58:00;1.53;;;0.97;;
10333;SDS011;5212;47.892;16.406;2024-03-23T19:00:25;1.63;;;1.23;;
10333;SDS011;5212;47.892;16.406;2024-03-23T19:02:52;1.40;;;1.13;;
10333;SDS011;5212;47.892;16.406;2024-03-23T19:05:18;1.90;;;1.40;;
10333;SDS011;5212;47.892;16.406;2024-03-23T19:07:45;2.10;;;1.13;;
10333;SDS011;5212;47.892;16.406;2024-03-23T19:10:10;1.33;;;1.10;;
10333;SDS011;5212;47.892;16.406;2024-03-23T19:12:37;2.10;;;1.20;;
10333;SDS011;5212;47.892;16.406;2024-03-23T19:15:05;2.67;;;1.10;;
10333;SDS011;5212;47.892;16.406;2024-03-23T19:17:34;1.50;;;1.10;;
10333;SDS011;5212;47.892;16.406;2024-03-23T19:20:00;1.33;;;1.10;;
10333;SDS011;5212;47.892;16.406;2024-03-23T19:22:28;1.60;;;1.23;;
10333;SDS011;5212;47.892;16.406;2024-03-23T19:24:54;2.10;;;1.20;;
10333;SDS011;5212;47.892;16.406;2024-03-23T19:27:21;1.77;;;1.37;;
10333;SDS011;5212;47.892;16.406;2024-03-23T19:29:47;2.90;;;1.43;;
10333;SDS011;5212;47.892;16.406;2024-03-23T19:32:15;2.17;;;1.40;;
10333;SDS011;5212;47.892;16.406;2024-03-23T19:34:41;1.23;;;1.13;;
10333;SDS011;5212;47.892;16.406;2024-03-23T19:37:08;1.80;;;1.30;;
10333;SDS011;5212;47.892;16.406;2024-03-23T19:39:34;1.97;;;1.30;;
10333;SDS011;5212;47.892;16.406;2024-03-23T19:42:01;3.07;;;1.50;;
10333;SDS011;5212;47.892;16.406;2024-03-23T19:44:27;1.60;;;1.20;;
10333;SDS011;5212;47.892;16.406;2024-03-23T19:46:53;1.87;;;1.37;;
10333;SDS011;5212;47.892;16.406;2024-03-23T19:49:20;1.70;;;1.23;;
10333;SDS011;5212;47.892;16.406;2024-03-23T19:51:47;1.13;;;1.00;;
10333;SDS011;5212;47.892;16.406;2024-03-23T19:54:13;1.80;;;1.10;;
10333;SDS011;5212;47.892;16.406;2024-03-23T19:56:40;3.20;;;1.60;;
10333;SDS011;5212;47.892;16.406;2024-03-23T19:59:06;1.53;;;1.30;;
10333;SDS011;5212;47.892;16.406;2024-03-23T20:01:34;3.87;;;1.70;;
10333;SDS011;5212;47.892;16.406;2024-03-23T20:04:00;2.57;;;1.43;;
10333;SDS011;5212;47.892;16.406;2024-03-23T20:06:30;2.80;;;1.23;;
10333;SDS011;5212;47.892;16.406;2024-03-23T20:08:57;1.47;;;1.10;;
10333;SDS011;5212;47.892;16.406;2024-03-23T20:11:23;1.67;;;1.10;;
10333;SDS011;5212;47.892;16.406;2024-03-23T20:13:49;1.40;;;1.03;;
10333;SDS011;5212;47.892;16.406;2024-03-23T20:16:15;1.13;;;0.90;;
10333;SDS011;5212;47.892;16.406;2024-03-23T20:18:42;1.07;;;0.87;;
10333;SDS011;5212;47.892;16.406;2024-03-23T20:21:08;1.50;;;1.00;;
10333;SDS011;5212;47.892;16.406;2024-03-23T20:23:36;0.80;;;0.70;;
10333;SDS011;5212;47.892;16.406;2024-03-23T20:26:02;1.73;;;1.03;;
10333;SDS011;5212;47.892;16.406;2024-03-23T20:28:30;0.80;;;0.73;;
10333;SDS011;5212;47.892;16.406;2024-03-23T20:30:56;1.33;;;1.00;;
10333;SDS011;5212;47.892;16.406;2024-03-23T20:33:23;1.67;;;0.90;;
10333;SDS011;5212;47.892;16.406;2024-03-23T20:35:48;2.40;;;0.90;;
10333;SDS011;5212;47.892;16.406;2024-03-23T20:38:16;0.90;;;0.80;;
10333;SDS011;5212;47.892;16.406;2024-03-23T20:40:43;1.20;;;0.80;;
10333;SDS011;5212;47.892;16.406;2024-03-23T20:43:10;2.57;;;0.90;;
10333;SDS011;5212;47.892;16.406;2024-03-23T20:45:37;0.83;;;0.70;;
10333;SDS011;5212;47.892;16.406;2024-03-23T20:48:04;0.90;;;0.73;;
10333;SDS011;5212;47.892;16.406;2024-03-23T20:50:31;0.70;;;0.70;;
10333;SDS011;5212;47.892;16.406;2024-03-23T20:52:57;0.90;;;0.70;;
10333;SDS011;5212;47.892;16.406;2024-03-23T20:55:24;1.00;;;0.70;;
10333;SDS011;5212;47.892;16.406;2024-03-23T20:57:52;0.93;;;0.73;;
10333;SDS011;5212;47.892;16.406;2024-03-23T21:00:18;1.07;;;0.60;;
10333;SDS011;5212;47.892;16.406;2024-03-23T21:02:45;1.03;;;0.60;;
10333;SDS011;5212;47.892;16.406;2024-03-23T21:26:50;1.43;;;0.80;;
10333;SDS011;5212;47.892;16.406;2024-03-23T21:29:17;1.27;;;0.80;;
10333;SDS011;5212;47.892;16.406;2024-03-23T21:31:42;1.43;;;0.90;;
10333;SDS011;5212;47.892;16.406;2024-03-23T21:52:51;1.73;;;1.10;;
10333;SDS011;5212;47.892;16.406;2024-03-23T21:55:19;1.00;;;0.90;;
10333;SDS011;5212;47.892;16.406;2024-03-23T21:57:46;1.87;;;1.00;;
10333;SDS011;5212;47.892;16.406;2024-03-23T22:00:14;1.60;;;0.90;;
10333;SDS011;5212;47.892;16.406;2024-03-23T22:02:40;1.63;;;1.10;;
10333;SDS011;5212;47.892;16.406;2024-03-23T22:05:07;2.20;;;1.00;;
10333;SDS011;5212;47.892;16.406;2024-03-23T22:07:32;1.80;;;1.10;;
10333;SDS011;5212;47.892;16.406;2024-03-23T22:10:00;2.23;;;1.10;;
10333;SDS011;5212;47.892;16.406;2024-03-23T22:12:26;2.77;;;0.90;;
10333;SDS011;5212;47.892;16.406;2024-03-23T22:14:53;1.40;;;1.10;;
10333;SDS011;5212;47.892;16.406;2024-03-23T22:17:18;0.80;;;0.80;;
10333;SDS011;5212;47.892;16.406;2024-03-23T22:19:45;1.23;;;0.80;;
10333;SDS011;5212;47.892;16.406;2024-03-23T22:22:11;1.50;;;1.10;;
10333;SDS011;5212;47.892;16.406;2024-03-23T22:24:39;1.20;;;1.07;;
10333;SDS011;5212;47.892;16.406;2024-03-23T22:27:06;1.40;;;0.90;;
10333;SDS011;5212;47.892;16.406;2024-03-23T22:29:33;0.87;;;0.77;;
10333;SDS011;5212;47.892;16.406;2024-03-23T22:31:59;1.30;;;0.90;;
10333;SDS011;5212;47.892;16.406;2024-03-23T22:34:28;0.93;;;0.83;;
10333;SDS011;5212;47.892;16.406;2024-03-23T22:36:54;0.93;;;0.80;;
10333;SDS011;5212;47.892;16.406;2024-03-23T22:39:20;1.03;;;0.93;;
10333;SDS011;5212;47.892;16.406;2024-03-23T22:41:46;1.27;;;1.00;;
10333;SDS011;5212;47.892;16.406;2024-03-23T22:44:14;1.50;;;1.00;;
10333;SDS011;5212;47.892;16.406;2024-03-23T22:46:40;1.10;;;0.87;;
10333;SDS011;5212;47.892;16.406;2024-03-23T22:49:06;2.27;;;1.00;;
10333;SDS011;5212;47.892;16.406;2024-03-23T22:51:32;1.63;;;1.10;;
10333;SDS011;5212;47.892;16.406;2024-03-23T22:53:59;3.03;;;1.10;;
10333;SDS011;5212;47.892;16.406;2024-03-23T22:56:25;1.37;;;1.00;;
10333;SDS011;5212;47.892;16.406;2024-03-23T23:02:14;1.10;;;1.00;;
10333;SDS011;5212;47.892;16.406;2024-03-23T23:04:42;0.80;;;0.80;;
10333;SDS011;5212;47.892;16.406;2024-03-23T23:07:07;1.60;;;1.00;;
10333;SDS011;5212;47.892;16.406;2024-03-23T23:09:34;1.37;;;0.90;;
10333;SDS011;5212;47.892;16.406;2024-03-23T23:12:00;1.10;;;0.90;;
10333;SDS011;5212;47.892;16.406;2024-03-23T23:14:27;1.10;;;0.90;;
10333;SDS011;5212;47.892;16.406;2024-03-23T23:16:52;2.40;;;0.90;;
10333;SDS011;5212;47.892;16.406;2024-03-23T23:19:20;2.23;;;0.80;;
10333;SDS011;5212;47.892;16.406;2024-03-23T23:21:46;2.60;;;0.93;;
10333;SDS011;5212;47.892;16.406;2024-03-23T23:24:13;1.23;;;0.90;;
10333;SDS011;5212;47.892;16.406;2024-03-23T23:26:39;1.60;;;0.87;;
10333;SDS011;5212;47.892;16.406;2024-03-23T23:29:06;1.13;;;0.83;;
10333;SDS011;5212;47.892;16.406;2024-03-23T23:31:31;1.20;;;1.07;;
10333;SDS011;5212;47.892;16.406;2024-03-23T23:33:59;2.47;;;1.00;;
10333;SDS011;5212;47.892;16.406;2024-03-23T23:36:26;1.47;;;0.77;;
10333;SDS011;5212;47.892;16.406;2024-03-23T23:38:52;2.47;;;1.13;;
10333;SDS011;5212;47.892;16.406;2024-03-23T23:41:18;0.60;;;0.60;;
10333;SDS011;5212;47.892;16.406;2024-03-23T23:43:52;1.00;;;0.90;;
10333;SDS011;5212;47.892;16.406;2024-03-23T23:46:19;1.00;;;0.90;;
10333;SDS011;5212;47.892;16.406;2024-03-23T23:48:45;1.13;;;0.77;;
10333;SDS011;5212;47.892;16.406;2024-03-23T23:51:11;1.23;;;0.90;;
10333;SDS011;5212;47.892;16.406;2024-03-23T23:53:39;1.27;;;1.03;;
10333;SDS011;5212;47.892;16.406;2024-03-23T23:56:07;1.40;;;0.80;;
10333;SDS011;5212;47.892;16.406;2024-03-23T23:58:34;3.03;;;1.00;;
